Time;durP1;ratioP1;P1;durP2;ratioP2;P2;SDS_P1;SDS_P2;PMS_P1;PMS_P2;Temp;Humidity;BMP_temperature;BMP_pressure;BME280_temperature;BME280_humidity;BME280_pressure;Samples;Min_cycle;Max_cycle;Signal;HPM_P1;HPM_P2
2022/05/22 00:00:31;;;;;;;9.65;4.25;;;10.00;99.90;;;;;;5014843;28;20040;-84
2022/05/22 00:02:57;;;;;;;8.80;4.30;;;10.00;99.90;;;;;;5014612;28;20025;-84
2022/05/22 00:06:03;;;;;;;5.95;3.85;;;9.90;99.90;;;;;;5015056;28;20028;-85
2022/05/22 00:08:29;;;;;;;7.35;4.05;;;9.90;99.90;;;;;;5031641;28;20388;-84
2022/05/22 00:10:56;;;;;;;8.02;4.03;;;9.80;99.90;;;;;;5015160;28;20507;-85
2022/05/22 00:13:49;;;;;;;5.88;3.92;;;9.80;99.90;;;;;;5015317;28;20021;-85
2022/05/22 00:19:07;;;;;;;6.47;4.45;;;9.80;99.90;;;;;;5032599;28;20156;-85
2022/05/22 00:21:33;;;;;;;6.80;4.05;;;9.80;99.90;;;;;;5030888;28;20046;-84
2022/05/22 00:23:59;;;;;;;6.53;3.83;;;9.80;99.90;;;;;;5032092;28;20114;-85
2022/05/22 00:26:25;;;;;;;8.02;4.05;;;9.90;99.90;;;;;;5014472;28;20093;-85
2022/05/22 00:28:51;;;;;;;9.02;4.30;;;9.90;99.90;;;;;;5031167;28;20034;-85
2022/05/22 00:31:17;;;;;;;5.53;3.92;;;9.90;99.90;;;;;;5014268;28;20040;-84
2022/05/22 00:33:43;;;;;;;8.23;3.85;;;9.90;99.90;;;;;;5014225;28;20060;-85
2022/05/22 00:36:09;;;;;;;7.75;4.30;;;9.90;99.90;;;;;;5030847;28;20030;-84
2022/05/22 00:38:35;;;;;;;11.40;4.30;;;9.80;99.90;;;;;;5031343;28;20698;-84
2022/05/22 00:41:02;;;;;;;7.22;3.78;;;9.80;99.90;;;;;;5014537;28;20038;-85
2022/05/22 00:43:31;;;;;;;6.47;3.75;;;9.80;99.90;;;;;;5033789;28;20028;-84
2022/05/22 00:45:59;;;;;;;6.15;4.20;;;9.80;99.90;;;;;;5018314;28;20033;-85
2022/05/22 00:48:28;;;;;;;8.27;4.40;;;9.80;99.90;;;;;;5018374;28;20048;-84
2022/05/22 00:51:14;;;;;;;9.32;4.75;;;9.80;99.90;;;;;;5034498;28;20041;-85
2022/05/22 00:53:45;;;;;;;8.65;4.50;;;9.80;99.90;;;;;;5018674;28;20099;-85
2022/05/22 00:56:16;;;;;;;6.57;4.20;;;9.90;99.90;;;;;;5018287;28;20033;-85
2022/05/22 00:58:43;;;;;;;6.78;4.72;;;10.00;99.90;;;;;;5018296;28;20029;-84
2022/05/22 01:01:09;;;;;;;11.98;5.30;;;10.10;99.90;;;;;;5018175;28;20033;-84
2022/05/22 01:03:36;;;;;;;7.57;4.20;;;10.10;99.90;;;;;;5034790;28;20083;-85
2022/05/22 01:06:10;;;;;;;10.93;4.18;;;10.10;99.90;;;;;;5017949;28;20037;-85
2022/05/22 01:08:39;;;;;;;6.18;4.15;;;10.00;99.90;;;;;;5034484;28;20048;-85
2022/05/22 01:11:33;;;;;;;5.60;4.03;;;9.80;99.90;;;;;;5017519;28;20036;-85
2022/05/22 01:14:05;;;;;;;11.45;4.70;;;9.70;99.90;;;;;;5033327;28;20132;-85
2022/05/22 01:16:32;;;;;;;9.20;3.85;;;9.70;99.90;;;;;;5017666;28;20029;-85
2022/05/22 01:18:58;;;;;;;6.25;4.18;;;9.70;99.90;;;;;;5033822;28;20029;-84
2022/05/22 01:21:34;;;;;;;7.43;3.95;;;9.70;99.90;;;;;;5018609;28;20163;-85
2022/05/22 01:23:59;;;;;;;8.85;3.78;;;9.60;99.90;;;;;;5017695;28;20032;-85
2022/05/22 01:26:29;;;;;;;8.02;4.32;;;9.50;99.90;;;;;;5018322;28;20037;-85
2022/05/22 01:29:08;;;;;;;10.13;4.57;;;9.40;99.90;;;;;;5019860;28;20030;-85
2022/05/22 01:31:34;;;;;;;7.43;4.25;;;9.30;99.90;;;;;;5017517;28;20026;-84
2022/05/22 01:34:03;;;;;;;8.85;4.43;;;9.30;99.90;;;;;;5034138;28;20087;-84
2022/05/22 01:36:28;;;;;;;6.97;4.32;;;9.20;99.90;;;;;;5017379;28;20030;-84
2022/05/22 01:38:59;;;;;;;6.88;4.32;;;9.10;99.90;;;;;;5017338;28;20056;-84
2022/05/22 01:41:33;;;;;;;6.50;4.75;;;9.10;99.90;;;;;;5018426;28;20781;-85
2022/05/22 01:43:59;;;;;;;11.77;4.88;;;9.00;99.90;;;;;;5034106;28;20057;-84
2022/05/22 01:46:34;;;;;;;13.73;5.18;;;9.00;99.90;;;;;;5017556;28;20114;-84
2022/05/22 01:49:05;;;;;;;9.63;4.55;;;8.90;99.90;;;;;;5018273;28;20038;-84
2022/05/22 01:51:37;;;;;;;10.13;5.03;;;8.80;99.90;;;;;;5017114;28;20112;-84
2022/05/22 01:54:04;;;;;;;7.78;4.63;;;8.80;99.90;;;;;;5016819;28;20052;-84
2022/05/22 01:56:34;;;;;;;7.13;5.32;;;8.80;99.90;;;;;;5016765;28;20037;-84
2022/05/22 01:59:03;;;;;;;9.60;5.07;;;8.70;99.90;;;;;;5017244;28;20029;-84
2022/05/22 02:02:18;;;;;;;7.63;4.90;;;8.70;99.90;;;;;;5017413;28;20096;-84
2022/05/22 02:04:44;;;;;;;7.50;4.70;;;8.60;99.90;;;;;;5016566;28;20037;-84
2022/05/22 02:10:34;;;;;;;9.45;5.13;;;8.60;99.90;;;;;;5033101;28;20038;-84
2022/05/22 02:13:01;;;;;;;8.23;5.00;;;8.60;99.90;;;;;;5016371;28;20025;-85
2022/05/22 02:15:27;;;;;;;10.95;6.03;;;8.60;99.90;;;;;;5016911;28;20034;-84
2022/05/22 02:17:54;;;;;;;9.55;5.20;;;8.70;99.90;;;;;;5033385;28;20029;-85
2022/05/22 02:20:21;;;;;;;11.63;5.40;;;8.70;99.90;;;;;;5016867;28;20029;-84
2022/05/22 02:26:34;;;;;;;9.68;5.13;;;8.70;99.90;;;;;;5035064;28;20052;-84
2022/05/22 02:29:00;;;;;;;10.57;5.20;;;8.70;99.90;;;;;;5016969;28;20030;-85
2022/05/22 02:31:28;;;;;;;7.05;5.13;;;8.60;99.90;;;;;;5016748;28;20030;-85
2022/05/22 02:33:54;;;;;;;6.20;4.78;;;8.60;99.90;;;;;;5016841;28;20727;-84
2022/05/22 02:36:39;;;;;;;11.30;5.43;;;8.50;99.90;;;;;;5016352;28;20029;-84
2022/05/22 02:39:05;;;;;;;7.95;5.43;;;8.40;99.90;;;;;;5016355;28;20029;-84
2022/05/22 02:41:31;;;;;;;7.82;4.97;;;8.40;99.90;;;;;;5016140;28;20126;-84
2022/05/22 02:44:00;;;;;;;6.78;5.07;;;8.30;99.90;;;;;;5016308;28;20415;-84
2022/05/22 02:46:35;;;;;;;12.85;5.32;;;8.20;99.90;;;;;;5031846;28;20039;-84
2022/05/22 02:49:01;;;;;;;8.10;4.72;;;8.20;99.90;;;;;;5016043;28;20041;-84
2022/05/22 02:51:35;;;;;;;9.15;5.13;;;8.20;99.90;;;;;;5032027;28;20029;-84
2022/05/22 02:54:02;;;;;;;10.95;5.72;;;8.10;99.90;;;;;;5015860;28;20045;-85
2022/05/22 02:56:46;;;;;;;9.02;5.80;;;8.10;99.90;;;;;;5032768;28;20031;-84
2022/05/22 02:59:15;;;;;;;6.72;5.30;;;8.10;99.90;;;;;;5032792;28;20029;-84
2022/05/22 03:02:00;;;;;;;12.07;5.95;;;8.00;99.90;;;;;;5032653;28;20144;-84
2022/05/22 03:04:27;;;;;;;10.52;6.25;;;8.00;99.90;;;;;;5015324;28;20079;-84
2022/05/22 03:07:02;;;;;;;14.52;6.25;;;8.00;99.90;;;;;;5032050;28;20021;-85
2022/05/22 03:09:31;;;;;;;11.05;6.18;;;8.00;99.90;;;;;;5032177;28;20032;-85
2022/05/22 03:12:26;;;;;;;8.93;6.03;;;8.10;99.90;;;;;;5031790;28;20105;-84
2022/05/22 03:14:59;;;;;;;12.68;6.68;;;8.20;99.90;;;;;;5016022;28;20050;-84
2022/05/22 03:17:26;;;;;;;9.95;6.63;;;8.20;99.90;;;;;;5015230;28;20163;-84
2022/05/22 03:19:59;;;;;;;10.35;6.75;;;8.20;99.90;;;;;;5016274;28;20056;-85
2022/05/22 03:22:26;;;;;;;8.73;6.13;;;8.30;99.90;;;;;;5014961;28;20109;-84
2022/05/22 03:24:52;;;;;;;13.45;5.63;;;8.30;99.90;;;;;;5014834;28;20041;-84
2022/05/22 03:27:20;;;;;;;9.63;5.85;;;8.20;99.90;;;;;;5015047;28;20124;-84
2022/05/22 03:29:47;;;;;;;14.38;6.40;;;8.20;99.90;;;;;;5015522;28;20037;-84
2022/05/22 03:32:13;;;;;;;11.63;5.70;;;8.20;99.90;;;;;;5015322;28;20036;-84
2022/05/22 03:34:42;;;;;;;9.88;5.65;;;8.10;99.90;;;;;;5031501;28;20036;-82
2022/05/22 03:37:09;;;;;;;13.57;6.25;;;8.10;99.90;;;;;;5015634;28;20051;-82
2022/05/22 03:39:35;;;;;;;10.38;6.13;;;8.10;99.90;;;;;;5015465;28;20033;-82
2022/05/22 03:42:02;;;;;;;11.27;6.05;;;8.10;99.90;;;;;;5014834;28;20037;-82
2022/05/22 03:44:28;;;;;;;7.78;6.15;;;8.10;99.90;;;;;;5015161;28;20112;-82
2022/05/22 03:46:54;;;;;;;11.70;5.93;;;8.10;99.90;;;;;;5031753;28;20448;-82
2022/05/22 03:49:29;;;;;;;11.23;7.07;;;8.10;99.90;;;;;;5016252;28;20112;-82
2022/05/22 03:51:57;;;;;;;10.63;6.00;;;8.20;99.90;;;;;;5015290;28;20025;-82
2022/05/22 03:54:23;;;;;;;10.88;6.22;;;8.20;99.90;;;;;;5015571;28;20048;-82
2022/05/22 03:56:53;;;;;;;10.60;6.57;;;8.20;99.90;;;;;;5015599;28;20068;-82
2022/05/22 03:59:22;;;;;;;11.23;5.78;;;8.20;99.90;;;;;;5015431;28;20022;-82
2022/05/22 04:01:48;;;;;;;9.40;5.90;;;8.20;99.90;;;;;;5031244;28;20492;-82
2022/05/22 04:04:14;;;;;;;12.55;6.38;;;8.30;99.90;;;;;;5015156;28;20052;-82
2022/05/22 04:06:40;;;;;;;9.55;6.38;;;8.30;99.90;;;;;;5015141;28;20056;-82
2022/05/22 04:09:08;;;;;;;10.90;6.63;;;8.40;99.90;;;;;;5015416;28;20428;-82
2022/05/22 04:11:57;;;;;;;10.50;5.68;;;8.40;99.90;;;;;;5031129;28;20029;-82
2022/05/22 04:14:24;;;;;;;10.75;5.78;;;8.40;99.90;;;;;;5015181;28;20150;-82
2022/05/22 04:17:01;;;;;;;13.32;6.18;;;8.40;99.90;;;;;;5018340;28;20040;-82
2022/05/22 04:19:28;;;;;;;10.95;6.32;;;8.50;99.90;;;;;;5019269;28;20057;-82
2022/05/22 04:21:54;;;;;;;10.63;5.88;;;8.60;99.90;;;;;;5035885;28;20025;-82
2022/05/22 04:27:10;;;;;;;10.52;6.18;;;8.60;99.90;;;;;;5035121;28;20040;-82
2022/05/22 04:29:37;;;;;;;9.13;6.35;;;8.80;99.90;;;;;;5018389;28;20026;-82
2022/05/22 04:32:03;;;;;;;10.23;6.30;;;9.00;99.90;;;;;;5017886;28;20029;-82
2022/05/22 04:34:36;;;;;;;9.60;5.03;;;9.20;99.90;;;;;;5018804;28;20029;-82
2022/05/22 04:37:09;;;;;;;9.27;5.68;;;9.40;99.90;;;;;;5018933;28;20029;-82
2022/05/22 04:39:41;;;;;;;6.65;5.30;;;9.50;99.90;;;;;;5034961;28;20389;-82
2022/05/22 04:42:07;;;;;;;10.27;5.07;;;9.50;99.90;;;;;;5018084;28;20033;-82
2022/05/22 04:44:33;;;;;;;8.23;5.25;;;9.70;99.90;;;;;;5018719;28;20071;-82
2022/05/22 04:47:19;;;;;;;6.57;5.35;;;9.80;99.90;;;;;;5035881;28;20568;-82
2022/05/22 04:50:05;;;;;;;10.05;5.90;;;9.90;99.90;;;;;;5034450;28;20034;-82
2022/05/22 04:52:33;;;;;;;8.43;5.88;;;10.10;99.90;;;;;;5018038;28;20025;-82
2022/05/22 04:54:58;;;;;;;11.68;6.05;;;10.30;99.90;;;;;;5018085;28;20033;-82
2022/05/22 04:57:25;;;;;;;7.43;5.85;;;10.50;99.90;;;;;;5018040;28;20108;-83
2022/05/22 04:59:51;;;;;;;10.85;5.68;;;10.70;99.90;;;;;;5034895;28;20503;-82
2022/05/22 05:02:17;;;;;;;9.55;5.50;;;10.80;99.90;;;;;;5017928;28;20030;-82
2022/05/22 05:04:57;;;;;;;10.27;5.95;;;11.00;99.90;;;;;;5034684;28;20121;-82
2022/05/22 05:07:39;;;;;;;13.27;6.28;;;11.20;99.90;;;;;;5019933;28;20144;-82
2022/05/22 05:10:24;;;;;;;5.47;4.70;;;11.30;99.90;;;;;;5034408;28;20079;-82
2022/05/22 05:12:57;;;;;;;6.78;4.15;;;11.50;99.90;;;;;;5034142;28;20033;-82
2022/05/22 05:19:06;;;;;;;6.72;4.60;;;11.80;99.90;;;;;;5033965;28;20052;-82
2022/05/22 05:21:36;;;;;;;7.78;4.72;;;11.90;99.90;;;;;;5018391;28;20025;-82
2022/05/22 05:24:05;;;;;;;13.40;5.53;;;12.00;99.90;;;;;;5017537;28;20087;-82
2022/05/22 05:26:32;;;;;;;6.40;4.43;;;12.20;99.90;;;;;;5033920;28;20420;-82
2022/05/22 05:29:02;;;;;;;8.35;5.05;;;12.40;99.90;;;;;;5017603;28;20576;-82
2022/05/22 05:31:39;;;;;;;7.28;5.07;;;12.50;99.90;;;;;;5018902;28;20041;-82
2022/05/22 05:34:05;;;;;;;6.55;4.55;;;12.70;99.90;;;;;;5017450;28;20056;-83
2022/05/22 05:36:38;;;;;;;6.88;5.10;;;12.80;99.90;;;;;;5018130;28;20026;-83
2022/05/22 05:39:07;;;;;;;8.95;4.88;;;12.90;99.90;;;;;;5017799;28;20116;-82
2022/05/22 05:41:47;;;;;;;10.77;4.90;;;13.00;99.90;;;;;;5033755;28;20646;-82
2022/05/22 05:44:15;;;;;;;6.15;4.38;;;13.00;99.90;;;;;;5034390;28;20083;-82
2022/05/22 05:46:49;;;;;;;6.65;4.40;;;13.10;99.90;;;;;;5018671;28;20041;-82
2022/05/22 05:49:15;;;;;;;7.53;4.90;;;13.20;99.90;;;;;;5017362;28;20400;-82
2022/05/22 05:51:44;;;;;;;5.63;4.65;;;13.20;99.90;;;;;;5033734;28;20112;-82
2022/05/22 05:54:19;;;;;;;7.70;4.47;;;13.30;99.90;;;;;;5018212;28;20117;-82
2022/05/22 05:57:15;;;;;;;7.07;5.00;;;13.40;99.90;;;;;;5033472;28;20060;-82
2022/05/22 05:59:46;;;;;;;11.00;4.93;;;13.40;99.90;;;;;;5017382;28;20026;-82
2022/05/22 06:02:19;;;;;;;7.40;4.32;;;13.50;99.90;;;;;;5017194;28;20556;-83
2022/05/22 06:04:44;;;;;;;9.98;4.53;;;13.50;99.90;;;;;;5033304;28;20558;-82
2022/05/22 06:07:10;;;;;;;6.97;4.43;;;13.60;99.90;;;;;;5032788;28;20021;-82
2022/05/22 06:09:37;;;;;;;10.65;4.97;;;13.60;99.90;;;;;;5032585;28;20680;-82
2022/05/22 06:12:22;;;;;;;7.13;4.20;;;13.70;99.90;;;;;;5032740;28;20507;-82
2022/05/22 06:14:59;;;;;;;11.90;4.43;;;13.90;99.90;;;;;;5018071;28;20396;-83
2022/05/22 06:21:21;;;;;;;5.90;4.43;;;14.00;99.90;;;;;;5008358;28;20041;-82
2022/05/22 06:23:48;;;;;;;6.75;4.07;;;14.10;99.90;;;;;;5016402;28;20025;-82
2022/05/22 06:26:34;;;;;;;5.22;4.10;;;14.20;99.90;;;;;;5026961;28;20033;-82
2022/05/22 06:29:18;;;;;;;10.15;4.70;;;14.30;99.90;;;;;;5033455;28;20397;-83
2022/05/22 06:32:52;;;;;;;7.72;3.97;;;14.30;99.90;;;;;;5031355;28;20370;-83
2022/05/22 06:35:46;;;;;;;10.68;5.05;;;14.40;99.90;;;;;;5020175;28;20111;-83
2022/05/22 06:41:48;;;;;;;9.63;4.72;;;14.70;99.90;;;;;;5032130;28;20029;-83
2022/05/22 06:48:23;;;;;;;6.90;5.07;;;14.90;99.90;;;;;;5034487;28;20067;-83
2022/05/22 06:51:20;;;;;;;9.48;5.18;;;15.00;99.90;;;;;;5019532;28;20034;-83
2022/05/22 06:54:12;;;;;;;8.13;4.18;;;15.10;99.90;;;;;;5030888;28;20065;-82
2022/05/22 06:56:41;;;;;;;5.35;4.30;;;15.10;99.90;;;;;;5032400;28;20041;-82
2022/05/22 06:59:25;;;;;;;6.18;4.60;;;15.20;99.90;;;;;;5033583;28;20044;-82
2022/05/22 07:02:20;;;;;;;7.55;4.68;;;15.30;99.90;;;;;;5110418;27;21311;-83
2022/05/22 07:05:04;;;;;;;7.95;4.20;;;15.50;99.90;;;;;;5094464;28;20026;-83
2022/05/22 07:08:01;;;;;;;10.65;4.18;;;15.50;99.90;;;;;;5103095;28;20429;-83
2022/05/22 07:13:38;;;;;;;6.18;3.85;;;15.70;99.90;;;;;;5109288;28;20035;-83
2022/05/22 07:16:22;;;;;;;5.75;3.88;;;15.70;99.90;;;;;;5109353;28;20042;-83
2022/05/22 07:18:55;;;;;;;9.15;3.90;;;15.80;99.90;;;;;;5093082;28;20059;-83
2022/05/22 07:21:31;;;;;;;5.95;3.47;;;15.90;99.90;;;;;;5093229;28;20035;-83
2022/05/22 07:24:10;;;;;;;4.18;3.40;;;16.00;99.90;;;;;;5094148;28;20058;-83
2022/05/22 07:27:35;;;;;;;6.45;3.78;;;16.10;99.90;;;;;;5108802;28;20030;-83
2022/05/22 07:30:21;;;;;;;7.80;3.38;;;16.20;99.90;;;;;;5095048;28;20494;-84
2022/05/22 07:33:07;;;;;;;8.05;3.50;;;16.30;99.90;;;;;;5108786;28;20081;-84
2022/05/22 07:35:59;;;;;;;7.18;3.25;;;16.40;99.90;;;;;;5109598;28;20063;-84
2022/05/22 07:39:15;;;;;;;8.00;3.08;;;16.50;99.90;;;;;;5093404;28;20039;-83
2022/05/22 07:41:43;;;;;;;7.63;2.67;;;16.60;99.90;;;;;;5108762;28;20067;-84
2022/05/22 07:44:32;;;;;;;4.38;2.80;;;16.80;99.90;;;;;;5108735;28;20028;-84
2022/05/22 07:47:06;;;;;;;8.10;2.80;;;17.20;99.90;;;;;;5108823;28;20024;-84
2022/05/22 07:50:21;;;;;;;4.35;2.53;;;19.20;99.90;;;;;;5095364;28;20036;-84
2022/05/22 07:52:50;;;;;;;6.32;2.28;;;21.70;99.90;;;;;;5108312;28;20036;-84
2022/05/22 07:55:22;;;;;;;10.18;1.92;;;23.60;99.90;;;;;;5107578;28;20058;-84
2022/05/22 07:58:14;;;;;;;4.15;1.48;;;24.30;99.80;;;;;;5105342;28;20035;-81
2022/05/22 08:00:55;;;;;;;;;;;25.40;91.90;;;;;;5093361;28;20799;-81
2022/05/22 08:03:40;;;;;;;8.27;1.63;;;26.60;86.30;;;;;;5107619;28;20386;-82
2022/05/22 08:06:08;;;;;;;3.13;1.50;;;27.20;79.20;;;;;;5090940;28;20024;-82
2022/05/22 08:08:37;;;;;;;7.78;1.58;;;27.60;73.30;;;;;;5091225;28;20024;-82
2022/05/22 08:11:29;;;;;;;3.35;1.50;;;28.60;72.10;;;;;;5103196;28;20032;-84
2022/05/22 08:14:03;;;;;;;5.40;2.25;;;28.20;71.60;;;;;;5093323;28;20403;-84
2022/05/22 08:16:37;;;;;;;7.47;1.90;;;26.80;68.00;;;;;;5077943;28;20766;-84
2022/05/22 08:19:09;;;;;;;4.60;2.00;;;27.20;70.60;;;;;;5078183;28;20507;-83
2022/05/22 08:22:21;;;;;;;5.43;1.60;;;27.90;68.60;;;;;;5078426;28;20395;-84
2022/05/22 08:25:07;;;;;;;4.65;1.70;;;27.20;65.10;;;;;;5094251;28;20101;-84
2022/05/22 08:27:38;;;;;;;5.88;1.60;;;26.90;64.20;;;;;;5077681;28;20111;-82
2022/05/22 08:30:12;;;;;;;5.18;1.65;;;27.10;64.40;;;;;;5076762;28;20119;-81
2022/05/22 08:32:40;;;;;;;3.72;1.70;;;26.60;65.00;;;;;;5077204;28;20487;-84
2022/05/22 08:35:09;;;;;;;3.97;1.75;;;26.30;65.20;;;;;;5077039;28;20036;-84
2022/05/22 08:37:36;;;;;;;3.72;1.38;;;26.80;65.20;;;;;;5077297;28;20505;-84
2022/05/22 08:40:53;;;;;;;5.25;1.50;;;27.60;63.50;;;;;;5077355;28;20035;-82
2022/05/22 08:43:56;;;;;;;2.78;1.52;;;27.10;61.30;;;;;;5093597;28;20016;-81
2022/05/22 08:46:25;;;;;;;3.55;1.73;;;26.80;63.90;;;;;;5077219;28;20031;-85
2022/05/22 08:49:01;;;;;;;3.78;1.50;;;26.20;66.90;;;;;;5076502;28;20024;-84
2022/05/22 08:51:40;;;;;;;4.72;1.98;;;26.20;66.70;;;;;;5093831;28;20031;-84
2022/05/22 08:54:22;;;;;;;2.88;1.80;;;26.00;67.50;;;;;;5093727;28;20032;-84
2022/05/22 08:59:39;;;;;;;3.20;1.70;;;25.90;68.00;;;;;;5093546;28;20032;-84
2022/05/22 09:02:24;;;;;;;7.90;1.77;;;25.90;67.30;;;;;;5076206;28;20827;-84
2022/05/22 09:05:01;;;;;;;5.13;1.65;;;25.70;68.30;;;;;;5093450;28;20278;-84
2022/05/22 09:07:37;;;;;;;4.00;2.15;;;26.10;67.50;;;;;;5093484;28;20024;-84
2022/05/22 09:10:07;;;;;;;5.32;1.80;;;26.20;64.50;;;;;;5092788;28;20426;-82
2022/05/22 09:12:47;;;;;;;7.55;1.95;;;27.10;63.60;;;;;;5075465;28;20070;-81
2022/05/22 09:15:45;;;;;;;4.47;1.67;;;27.80;63.50;;;;;;5094169;28;20024;-82
2022/05/22 09:18:23;;;;;;;6.38;1.55;;;28.00;63.60;;;;;;5092597;28;20052;-81
2022/05/22 09:21:32;;;;;;;3.95;1.70;;;28.00;60.80;;;;;;5075464;28;20036;-81
2022/05/22 09:24:00;;;;;;;3.80;1.33;;;28.80;59.30;;;;;;5036741;28;20063;-82
2022/05/22 09:26:29;;;;;;;4.07;1.20;;;29.20;59.40;;;;;;5075752;28;20793;-81
2022/05/22 09:29:07;;;;;;;2.30;2.00;;;29.20;58.30;;;;;;5093842;28;20031;-82
2022/05/22 09:32:13;;;;;;;4.68;1.65;;;28.90;58.70;;;;;;5075591;28;20512;-82
2022/05/22 09:34:47;;;;;;;2.83;1.50;;;29.50;57.90;;;;;;5075989;28;20486;-82
2022/05/22 09:37:16;;;;;;;3.75;1.58;;;30.10;56.80;;;;;;5092971;28;20077;-82
2022/05/22 09:40:15;;;;;;;5.60;1.80;;;30.40;57.30;;;;;;5076026;28;20032;-82
2022/05/22 09:43:15;;;;;;;5.63;1.65;;;30.60;56.10;;;;;;5075665;28;20047;-82
2022/05/22 09:46:14;;;;;;;3.15;1.35;;;30.80;55.90;;;;;;5093299;28;20067;-82
2022/05/22 09:49:24;;;;;;;3.17;1.48;;;29.00;55.50;;;;;;5076012;28;20036;-82
2022/05/22 09:51:56;;;;;;;4.40;1.70;;;27.80;57.00;;;;;;5072472;28;20036;-82
2022/05/22 09:54:56;;;;;;;1.85;1.23;;;27.90;58.40;;;;;;5092353;28;20063;-81
2022/05/22 09:57:30;;;;;;;4.47;1.30;;;27.10;59.70;;;;;;5075064;28;20027;-82
2022/05/22 10:00:08;;;;;;;3.15;1.48;;;26.80;59.50;;;;;;5092254;28;20608;-82
2022/05/22 10:02:51;;;;;;;4.40;1.77;;;26.50;58.60;;;;;;5075904;28;20032;-82
2022/05/22 10:05:50;;;;;;;7.25;1.33;;;26.50;59.90;;;;;;5075966;28;20119;-82
2022/05/22 10:08:47;;;;;;;4.80;1.65;;;26.50;58.40;;;;;;5092183;28;20379;-82
2022/05/22 10:11:23;;;;;;;2.15;1.48;;;26.50;58.90;;;;;;5093528;28;20430;-82
2022/05/22 10:14:02;;;;;;;3.60;1.70;;;26.50;59.30;;;;;;5092907;28;20034;-82
2022/05/22 10:16:58;;;;;;;3.33;1.70;;;26.80;60.30;;;;;;5075151;28;20039;-82
2022/05/22 10:19:55;;;;;;;1.63;1.00;;;26.80;59.00;;;;;;5092005;28;20032;-82
2022/05/22 10:25:58;;;;;;;4.85;1.30;;;26.20;61.40;;;;;;5092145;28;20028;-82
2022/05/22 10:28:32;;;;;;;4.93;1.60;;;25.10;61.00;;;;;;5092015;28;20028;-82
2022/05/22 10:31:07;;;;;;;2.08;1.52;;;25.00;63.30;;;;;;5092070;28;20109;-82
2022/05/22 10:34:01;;;;;;;3.85;1.40;;;25.00;62.20;;;;;;5075521;28;20514;-82
2022/05/22 10:36:45;;;;;;;2.72;1.60;;;25.00;62.40;;;;;;5073890;28;20070;-82
2022/05/22 10:39:13;;;;;;;5.60;1.38;;;24.60;63.80;;;;;;5075238;28;20089;-82
2022/05/22 10:44:33;;;;;;;3.20;1.10;;;24.90;61.80;;;;;;5091463;28;20050;-81
2022/05/22 10:47:02;;;;;;;3.10;1.20;;;25.60;60.60;;;;;;5074546;28;20032;-82
2022/05/22 10:49:41;;;;;;;4.72;1.50;;;26.00;60.40;;;;;;5074712;28;20043;-82
2022/05/22 10:52:09;;;;;;;2.42;1.08;;;26.80;58.10;;;;;;5091260;28;20036;-82
2022/05/22 10:54:45;;;;;;;3.67;1.40;;;27.00;56.90;;;;;;5091916;28;20020;-82
2022/05/22 10:57:29;;;;;;;3.63;1.08;;;27.30;58.60;;;;;;5074573;28;20032;-82
2022/05/22 10:59:57;;;;;;;3.60;1.40;;;27.60;57.60;;;;;;5074491;28;20430;-82
2022/05/22 11:02:28;;;;;;;1.67;1.05;;;27.20;61.00;;;;;;5074394;28;20036;-82
2022/05/22 11:04:55;;;;;;;6.13;1.30;;;27.20;59.80;;;;;;5091442;28;20059;-82
2022/05/22 11:07:32;;;;;;;2.33;1.30;;;27.10;58.60;;;;;;5074332;28;20740;-82
2022/05/22 11:10:13;;;;;;;3.40;1.20;;;26.70;57.80;;;;;;5074313;28;20365;-82
2022/05/22 11:12:38;;;;;;;;;;;26.30;58.60;;;;;;5074787;28;20119;-81
2022/05/22 11:15:28;;;;;;;2.65;1.38;;;25.80;59.10;;;;;;5074659;28;19954;-82
2022/05/22 11:18:10;;;;;;;2.72;1.13;;;25.70;61.10;;;;;;5064942;28;20490;-82
2022/05/22 11:20:48;;;;;;;3.78;1.55;;;25.70;61.30;;;;;;5074331;28;20128;-82
2022/05/22 11:23:31;;;;;;;7.72;1.63;;;25.60;59.90;;;;;;5090747;28;20491;-82
2022/05/22 11:26:08;;;;;;;4.13;1.00;;;26.10;57.90;;;;;;5091433;28;20036;-82
2022/05/22 11:28:37;;;;;;;4.80;1.92;;;26.10;59.30;;;;;;5091483;28;20028;-82
2022/05/22 11:31:30;;;;;;;5.30;1.30;;;25.80;60.70;;;;;;5091426;28;20113;-82
2022/05/22 11:34:25;;;;;;;4.10;1.50;;;26.20;62.10;;;;;;5073568;28;20032;-82
2022/05/22 11:37:12;;;;;;;7.15;1.65;;;26.90;59.80;;;;;;5060495;28;20487;-82
2022/05/22 11:40:16;;;;;;;4.13;1.40;;;27.00;59.10;;;;;;5091306;28;20060;-81
2022/05/22 11:42:42;;;;;;;2.53;1.33;;;27.10;59.50;;;;;;5091079;28;20028;-82
2022/05/22 11:45:41;;;;;;;4.28;1.23;;;26.60;57.80;;;;;;5074205;28;20432;-82
2022/05/22 11:48:07;;;;;;;3.90;1.40;;;25.90;61.10;;;;;;5092712;28;20028;-84
2022/05/22 11:50:44;;;;;;;4.00;1.35;;;25.70;60.00;;;;;;5094550;28;20024;-82
2022/05/22 11:53:30;;;;;;;1.90;1.27;;;25.70;61.20;;;;;;5094326;28;20028;-82
2022/05/22 11:56:23;;;;;;;2.72;1.55;;;25.60;59.30;;;;;;5094333;28;20086;-82
2022/05/22 12:03:02;;;;;;;2.40;1.20;;;25.60;60.20;;;;;;5096037;28;20126;-81
2022/05/22 12:05:49;;;;;;;2.33;1.25;;;25.80;59.30;;;;;;5094169;28;20483;-81
2022/05/22 12:08:49;;;;;;;5.05;1.25;;;25.90;59.20;;;;;;5077988;28;20028;-82
2022/05/22 12:11:35;;;;;;;2.90;1.60;;;25.80;59.30;;;;;;5077830;28;20036;-82
2022/05/22 12:14:29;;;;;;;3.10;1.48;;;25.90;60.70;;;;;;5094630;28;20028;-82
2022/05/22 12:17:12;;;;;;;2.15;1.30;;;26.20;60.60;;;;;;5094869;28;20483;-82
2022/05/22 12:19:44;;;;;;;6.80;1.40;;;26.50;60.90;;;;;;5077477;28;20435;-82
2022/05/22 12:22:20;;;;;;;3.75;1.40;;;26.50;60.40;;;;;;5093737;28;20075;-82
2022/05/22 12:25:02;;;;;;;2.70;1.30;;;26.30;59.30;;;;;;5076828;28;20060;-82
2022/05/22 12:27:34;;;;;;;2.80;1.27;;;25.90;61.10;;;;;;5094377;28;20078;-82
2022/05/22 12:30:56;;;;;;;3.95;1.40;;;26.00;59.50;;;;;;5094035;28;20036;-82
2022/05/22 12:33:23;;;;;;;12.27;6.40;;;25.90;59.60;;;;;;5076563;28;20028;-82
2022/05/22 12:35:52;;;;;;;3.15;1.40;;;26.60;60.10;;;;;;5076524;28;20055;-82
2022/05/22 12:38:18;;;;;;;3.47;1.67;;;26.60;59.00;;;;;;5076929;28;20456;-82
2022/05/22 12:41:03;;;;;;;2.50;1.52;;;27.00;60.80;;;;;;5076813;28;20124;-82
2022/05/22 12:43:30;;;;;;;2.08;1.33;;;27.60;59.10;;;;;;5094010;28;20020;-82
2022/05/22 12:46:01;;;;;;;4.32;1.30;;;28.80;58.20;;;;;;5093933;28;20637;-82
2022/05/22 12:48:33;;;;;;;3.00;1.25;;;29.10;56.80;;;;;;5076852;28;20028;-83
2022/05/22 12:51:21;;;;;;;2.97;1.17;;;29.00;56.80;;;;;;5076794;28;20032;-82
2022/05/22 12:53:53;;;;;;;6.07;1.40;;;28.80;55.60;;;;;;5076211;28;20640;-82
2022/05/22 12:56:40;;;;;;;3.67;1.00;;;28.90;55.50;;;;;;5093291;28;20391;-82
2022/05/22 12:59:20;;;;;;;2.63;1.20;;;29.30;56.00;;;;;;5092970;28;20035;-82
2022/05/22 13:01:55;;;;;;;1.88;1.00;;;28.80;56.20;;;;;;5076159;28;20089;-82
2022/05/22 13:04:54;;;;;;;4.57;1.30;;;28.30;57.70;;;;;;5076639;28;20031;-83
2022/05/22 13:07:38;;;;;;;4.65;1.60;;;28.40;59.20;;;;;;5076699;28;20510;-82
2022/05/22 13:10:45;;;;;;;4.25;1.40;;;28.60;56.60;;;;;;5076415;28;20732;-82
2022/05/22 13:13:14;;;;;;;2.13;0.98;;;28.20;56.50;;;;;;5053433;28;20093;-82
2022/05/22 13:16:00;;;;;;;1.45;1.17;;;27.60;57.70;;;;;;5093361;28;20417;-82
2022/05/22 13:22:31;;;;;;;5.22;1.38;;;27.10;59.30;;;;;;5093811;28;20117;-82
2022/05/22 13:24:57;;;;;;;4.90;1.27;;;28.20;57.40;;;;;;5092859;28;20420;-82
2022/05/22 13:27:30;;;;;;;4.40;1.10;;;29.00;56.10;;;;;;5076498;28;20433;-82
2022/05/22 13:30:07;;;;;;;4.00;1.42;;;29.50;56.80;;;;;;5076336;28;20483;-82
2022/05/22 13:33:04;;;;;;;3.38;1.50;;;29.50;54.90;;;;;;5092705;28;20028;-82
2022/05/22 13:35:37;;;;;;;3.03;1.35;;;29.50;55.30;;;;;;5092719;28;20390;-82
2022/05/22 13:38:09;;;;;;;4.82;1.50;;;28.90;56.10;;;;;;5076134;28;20067;-83
2022/05/22 13:40:38;;;;;;;1.58;1.10;;;29.20;56.20;;;;;;5094374;28;20125;-82
2022/05/22 13:43:43;;;;;;;4.60;1.30;;;29.90;55.20;;;;;;5092752;28;20078;-83
2022/05/22 13:46:39;;;;;;;2.70;1.17;;;30.70;55.80;;;;;;5075301;28;20035;-83
2022/05/22 13:49:14;;;;;;;6.63;1.50;;;30.70;54.10;;;;;;5075839;28;20122;-82
2022/05/22 13:54:55;;;;;;;3.13;1.25;;;29.20;55.10;;;;;;5091946;28;20067;-82
2022/05/22 13:57:33;;;;;;;3.03;1.23;;;28.90;55.80;;;;;;5074957;28;20036;-82
2022/05/22 14:00:04;;;;;;;4.20;1.20;;;29.00;57.40;;;;;;5075457;28;20813;-82
2022/05/22 14:02:46;;;;;;;6.05;1.50;;;28.80;57.40;;;;;;5091890;28;20566;-81
2022/05/22 14:05:13;;;;;;;2.58;1.30;;;28.50;55.60;;;;;;5075688;28;20032;-82
2022/05/22 14:07:43;;;;;;;3.10;1.38;;;27.30;56.30;;;;;;5092190;28;20028;-81
2022/05/22 14:10:51;;;;;;;4.33;1.10;;;27.40;58.60;;;;;;5091565;28;20020;-81
2022/05/22 14:13:20;;;;;;;5.30;1.63;;;27.60;58.60;;;;;;5091777;28;20024;-82
2022/05/22 14:15:53;;;;;;;2.70;1.15;;;27.70;58.20;;;;;;5074941;28;20035;-82
2022/05/22 14:18:22;;;;;;;2.58;1.45;;;28.10;58.10;;;;;;5091373;28;20028;-82
2022/05/22 14:24:52;;;;;;;1.95;1.20;;;27.80;58.90;;;;;;5093276;28;20141;-82
2022/05/22 14:27:38;;;;;;;3.95;1.23;;;27.70;57.70;;;;;;5093065;28;20020;-82
2022/05/22 14:30:15;;;;;;;2.13;1.30;;;27.30;58.40;;;;;;5091643;28;20085;-82
2022/05/22 14:32:48;;;;;;;8.40;1.55;;;27.20;57.40;;;;;;5074602;28;20028;-82